Time;durP1;ratioP1;P1;durP2;ratioP2;P2;SDS_P1;SDS_P2;PMS_P1;PMS_P2;Temp;Humidity;BMP_temperature;BMP_pressure;BME280_temperature;BME280_humidity;BME280_pressure;Samples;Min_cycle;Max_cycle;Signal;HPM_P1;HPM_P2
2022/10/20 00:01:18;;;;;;;27.00;15.40;;;11.60;99.90;;;10.67;100.00;97661.47;5029933;28;20861;-72
2022/10/20 00:03:45;;;;;;;26.02;14.90;;;11.70;99.90;;;10.70;100.00;97665.47;5029764;28;20469;-72
2022/10/20 00:06:14;;;;;;;28.02;15.60;;;11.60;99.90;;;10.74;100.00;97656.81;5029951;28;20920;-71
2022/10/20 00:08:41;;;;;;;31.75;14.75;;;11.70;99.90;;;10.68;100.00;97655.13;5030009;28;20477;-72
2022/10/20 00:11:09;;;;;;;30.75;15.98;;;11.60;99.90;;;10.71;100.00;97654.63;5030185;28;20407;-71
2022/10/20 00:13:35;;;;;;;21.03;13.30;;;11.70;99.90;;;10.67;100.00;97652.75;5029862;28;20426;-72
2022/10/20 00:16:04;;;;;;;27.38;14.68;;;11.60;99.90;;;10.65;100.00;97647.69;5030084;28;20487;-71
2022/10/20 00:18:30;;;;;;;31.83;15.70;;;11.60;99.90;;;10.67;100.00;97639.50;5030199;28;20399;-71
2022/10/20 00:20:56;;;;;;;26.45;14.43;;;11.60;99.90;;;10.68;100.00;97646.38;5030489;28;20403;-71
2022/10/20 00:23:23;;;;;;;32.97;15.27;;;11.60;99.90;;;10.59;100.00;97640.72;5029818;28;20413;-71
2022/10/20 00:25:58;;;;;;;24.38;14.93;;;11.60;99.90;;;10.57;100.00;97642.00;5029821;28;20438;-71
2022/10/20 00:28:24;;;;;;;30.70;15.77;;;11.50;99.90;;;10.56;100.00;97645.69;5030129;28;20441;-71
2022/10/20 00:30:54;;;;;;;29.15;16.52;;;11.50;99.90;;;10.55;100.00;97641.44;5030046;28;20443;-71
2022/10/20 00:33:21;;;;;;;35.22;16.00;;;11.50;99.90;;;10.50;100.00;97642.19;5029633;28;20920;-72
2022/10/20 00:35:47;;;;;;;31.40;15.88;;;11.50;99.90;;;10.48;100.00;97631.03;5029969;28;20429;-71
2022/10/20 00:38:13;;;;;;;29.85;16.40;;;11.50;99.90;;;10.48;100.00;97636.31;5030199;28;20811;-72
2022/10/20 00:40:39;;;;;;;27.80;15.90;;;11.50;99.90;;;10.48;100.00;97641.63;5030267;28;20407;-71
2022/10/20 00:43:09;;;;;;;27.23;15.80;;;11.50;99.90;;;10.47;100.00;97642.66;5029557;28;20502;-72
2022/10/20 00:45:35;;;;;;;34.63;17.15;;;11.50;99.90;;;10.51;100.00;97650.94;5029582;28;20418;-71
2022/10/20 00:48:07;;;;;;;27.83;14.90;;;11.50;99.90;;;10.48;100.00;97647.72;5030575;28;20434;-71
2022/10/20 00:50:41;;;;;;;28.43;16.33;;;11.50;99.90;;;10.48;100.00;97647.72;5033826;28;20964;-71
2022/10/20 00:53:07;;;;;;;24.52;15.02;;;11.50;99.90;;;10.45;100.00;97634.94;5033342;28;20457;-71
2022/10/20 00:55:37;;;;;;;31.23;16.23;;;11.40;99.90;;;10.44;100.00;97630.72;5033614;28;20918;-72
2022/10/20 00:58:03;;;;;;;29.27;16.40;;;11.40;99.90;;;10.43;100.00;97625.69;5033671;28;20517;-71
2022/10/20 01:00:30;;;;;;;31.23;16.57;;;11.40;99.90;;;10.43;100.00;97615.91;5033640;28;20494;-71
2022/10/20 01:03:00;;;;;;;37.97;17.50;;;11.40;99.90;;;10.43;100.00;97605.31;5033115;28;20481;-71
2022/10/20 01:05:27;;;;;;;36.97;17.55;;;11.40;99.90;;;10.39;100.00;97604.19;5036894;28;20887;-72
2022/10/20 01:07:54;;;;;;;28.95;15.82;;;11.40;99.90;;;10.35;100.00;97595.13;5033375;28;20411;-71
2022/10/20 01:10:22;;;;;;;35.25;17.33;;;11.30;99.90;;;10.34;100.00;97595.38;5033551;28;20411;-71
2022/10/20 01:12:54;;;;;;;30.52;16.88;;;11.30;99.90;;;10.28;100.00;97596.34;5032973;28;20441;-72
2022/10/20 01:15:32;;;;;;;32.85;17.50;;;11.20;99.90;;;10.26;100.00;97596.59;5033139;28;20410;-71
2022/10/20 01:18:08;;;;;;;34.13;17.73;;;11.20;99.90;;;10.28;100.00;97585.78;5032003;28;20504;-71
2022/10/20 01:21:24;;;;;;;41.47;19.00;;;11.30;99.90;;;10.26;100.00;97583.38;5033301;28;20395;-71
2022/10/20 01:24:15;;;;;;;39.50;18.25;;;11.30;99.90;;;10.28;100.00;97583.13;5030923;28;20419;-71
2022/10/20 01:27:32;;;;;;;33.88;18.13;;;11.20;99.90;;;10.24;100.00;97585.44;5032743;28;20911;-72
2022/10/20 01:30:11;;;;;;;36.17;17.10;;;11.20;99.90;;;10.18;100.00;97589.06;5033002;28;20391;-72
2022/10/20 01:33:04;;;;;;;34.08;17.70;;;11.10;99.90;;;10.17;100.00;97584.00;5032968;28;20403;-71
2022/10/20 01:35:41;;;;;;;40.33;18.42;;;11.10;99.90;;;10.17;100.00;97589.28;5032753;28;20422;-71
2022/10/20 01:38:19;;;;;;;34.00;17.90;;;11.10;99.90;;;10.15;100.00;97575.50;5033012;28;20419;-71
2022/10/20 01:40:52;;;;;;;34.65;18.35;;;11.10;99.90;;;10.13;100.00;97575.75;5032940;28;20808;-71
2022/10/20 01:43:24;;;;;;;36.28;18.70;;;11.10;99.90;;;10.15;100.00;97573.63;5032319;28;20469;-71
2022/10/20 01:45:51;;;;;;;41.78;20.23;;;11.10;99.90;;;10.16;100.00;97569.16;5032597;28;20454;-72
2022/10/20 01:48:21;;;;;;;36.05;19.20;;;11.10;99.90;;;10.15;100.00;97564.94;5032902;28;20400;-72
2022/10/20 01:50:48;;;;;;;35.55;20.15;;;11.10;99.90;;;10.15;100.00;97565.72;5032713;28;20399;-72
2022/10/20 01:53:15;;;;;;;37.38;19.83;;;11.10;99.90;;;10.20;100.00;97567.66;5032265;28;20402;-72
2022/10/20 01:55:41;;;;;;;41.42;20.95;;;11.10;99.90;;;10.21;100.00;97561.34;5032331;28;20400;-72
2022/10/20 01:58:40;;;;;;;40.20;20.42;;;11.20;99.90;;;10.20;100.00;97557.09;5032517;28;20426;-72
2022/10/20 02:01:16;;;;;;;51.95;23.10;;;11.20;99.90;;;10.22;100.00;97557.66;5032587;28;20407;-71
2022/10/20 02:03:51;;;;;;;45.92;22.05;;;11.20;99.90;;;10.22;100.00;97550.53;5032080;28;20754;-71
2022/10/20 02:06:31;;;;;;;40.58;21.20;;;11.20;99.90;;;10.17;100.00;97553.06;5032317;28;20441;-72
2022/10/20 02:09:00;;;;;;;40.65;20.35;;;11.10;99.90;;;10.20;100.00;97546.50;5032511;28;20418;-71
2022/10/20 02:11:34;;;;;;;40.80;19.80;;;11.10;99.90;;;10.20;100.00;97535.94;5032303;28;20395;-71
2022/10/20 02:14:03;;;;;;;37.75;19.33;;;11.10;99.90;;;10.15;100.00;97546.41;5031799;28;20438;-71
2022/10/20 02:16:34;;;;;;;35.67;18.55;;;11.10;99.90;;;10.14;100.00;97544.81;5032098;28;20407;-72
2022/10/20 02:19:02;;;;;;;42.63;21.25;;;11.10;99.90;;;10.16;100.00;97545.34;5032078;28;20480;-72
2022/10/20 02:21:28;;;;;;;40.22;20.45;;;11.10;99.90;;;10.10;100.00;97534.72;5032148;28;20407;-72
2022/10/20 02:23:59;;;;;;;39.33;19.35;;;11.10;99.90;;;10.08;100.00;97534.16;5031696;28;20411;-71
2022/10/20 02:26:25;;;;;;;44.88;21.30;;;11.10;99.90;;;10.08;100.00;97530.69;5030460;28;20423;-72
2022/10/20 02:28:57;;;;;;;48.92;21.88;;;11.10;99.90;;;10.09;100.00;97524.38;5032030;28;20418;-72
2022/10/20 02:31:25;;;;;;;40.42;19.42;;;11.00;99.90;;;10.08;100.00;97522.75;5031970;28;20763;-72
2022/10/20 02:33:53;;;;;;;47.97;21.80;;;11.00;99.90;;;10.10;100.00;97526.78;5031524;28;20401;-72
2022/10/20 02:36:24;;;;;;;44.63;20.33;;;11.10;99.90;;;10.06;100.00;97528.31;5031730;28;20809;-72
2022/10/20 02:38:50;;;;;;;31.52;18.10;;;11.00;99.90;;;10.04;100.00;97519.81;5031850;28;20494;-72
2022/10/20 02:41:15;;;;;;;35.93;19.67;;;11.00;99.90;;;10.03;100.00;97509.47;5030454;28;20553;-71
2022/10/20 02:43:41;;;;;;;38.77;21.40;;;11.00;99.90;;;10.05;100.00;97512.69;5031247;28;20407;-72
2022/10/20 02:46:07;;;;;;;31.90;18.48;;;11.00;99.90;;;10.04;100.00;97517.19;5031405;28;20415;-71
2022/10/20 02:48:37;;;;;;;34.85;18.52;;;11.00;99.90;;;10.04;100.00;97509.25;5031652;28;20410;-72
2022/10/20 02:51:04;;;;;;;51.78;22.50;;;11.00;99.90;;;10.04;100.00;97522.47;5031551;28;20455;-72
2022/10/20 02:53:30;;;;;;;40.55;21.15;;;11.00;99.90;;;10.05;100.00;97524.06;5031067;28;20403;-72
2022/10/20 02:55:55;;;;;;;34.60;19.13;;;11.00;99.90;;;10.05;100.00;97516.13;5031448;28;20738;-72
2022/10/20 02:58:21;;;;;;;48.50;22.50;;;11.00;99.90;;;10.06;100.00;97522.22;5031455;28;20461;-72
2022/10/20 03:00:48;;;;;;;43.08;22.00;;;11.00;99.90;;;10.06;100.00;97515.09;5031442;28;20496;-72
2022/10/20 03:03:14;;;;;;;42.85;21.85;;;11.10;99.90;;;10.08;100.00;97518.28;5030922;28;20446;-72
2022/10/20 03:05:43;;;;;;;38.58;20.75;;;11.00;99.90;;;10.08;100.00;97520.91;5031095;28;20467;-72
2022/10/20 03:08:10;;;;;;;40.58;21.67;;;11.10;99.90;;;10.09;100.00;97511.16;5031170;28;20521;-72
2022/10/20 03:10:37;;;;;;;46.40;21.30;;;11.00;99.90;;;10.08;100.00;97513.00;5030640;28;20395;-72
2022/10/20 03:13:04;;;;;;;44.63;22.05;;;11.10;99.90;;;10.09;100.00;97504.00;5030695;28;20407;-72
2022/10/20 03:15:30;;;;;;;43.03;21.17;;;11.00;99.90;;;10.07;100.00;97502.69;5030882;28;20419;-72
2022/10/20 03:17:55;;;;;;;42.53;22.30;;;11.00;99.90;;;10.07;100.00;97511.38;5030858;28;20414;-71
2022/10/20 03:20:21;;;;;;;43.40;21.75;;;11.10;99.90;;;10.08;100.00;97509.53;5031142;28;20490;-72
2022/10/20 03:22:49;;;;;;;41.27;20.73;;;11.00;99.90;;;10.07;100.00;97514.03;5030574;28;20442;-71
2022/10/20 03:25:15;;;;;;;39.35;21.20;;;11.00;99.90;;;10.06;100.00;97507.16;5030808;28;20403;-71
2022/10/20 03:27:41;;;;;;;38.80;21.10;;;11.00;99.90;;;10.08;100.00;97513.00;5030690;28;20504;-71
2022/10/20 03:30:08;;;;;;;43.75;21.63;;;11.10;99.90;;;10.08;100.00;97507.69;5030817;28;20888;-71
2022/10/20 03:32:34;;;;;;;44.38;22.95;;;11.10;99.90;;;10.10;100.00;97507.47;5030691;28;20419;-71
2022/10/20 03:35:00;;;;;;;50.17;23.00;;;11.10;99.90;;;10.11;100.00;97517.00;5030359;28;20414;-71
2022/10/20 03:37:26;;;;;;;47.08;22.08;;;11.10;99.90;;;10.10;100.00;97515.41;5030645;28;20431;-71
2022/10/20 03:39:53;;;;;;;42.45;21.20;;;11.00;99.90;;;10.09;100.00;97511.16;5030752;28;21023;-71
2022/10/20 03:42:19;;;;;;;43.30;23.17;;;11.00;99.90;;;10.14;100.00;97499.84;5030533;28;20463;-71
2022/10/20 03:44:45;;;;;;;55.20;24.00;;;11.10;99.90;;;10.14;100.00;97500.66;5030181;28;20442;-71
2022/10/20 03:47:11;;;;;;;49.33;23.67;;;11.10;99.90;;;10.15;100.00;97491.66;5030521;28;20835;-71
2022/10/20 03:49:37;;;;;;;41.53;22.10;;;11.10;99.90;;;10.17;100.00;97491.41;5029815;28;20394;-71
2022/10/20 03:52:04;;;;;;;48.20;23.52;;;11.10;99.90;;;10.16;100.00;97489.81;5023885;28;20557;-71
2022/10/20 03:54:29;;;;;;;49.20;23.92;;;11.10;99.90;;;10.17;100.00;97497.53;5030033;28;20900;-71
2022/10/20 03:56:57;;;;;;;47.92;23.27;;;11.10;99.90;;;10.20;100.00;97494.41;5028132;28;20426;-72
2022/10/20 03:59:23;;;;;;;50.67;23.55;;;11.10;99.90;;;10.20;100.00;97483.03;5030175;28;20415;-72
2022/10/20 04:01:49;;;;;;;46.00;24.85;;;11.20;99.90;;;10.21;100.00;97495.22;5032674;28;20421;-72
2022/10/20 04:04:14;;;;;;;49.88;25.35;;;11.20;99.90;;;10.23;100.00;97477.22;5026125;28;20785;-72
2022/10/20 04:06:40;;;;;;;48.47;26.07;;;11.20;99.90;;;10.26;100.00;97482.03;5027821;28;20427;-72
2022/10/20 04:09:06;;;;;;;47.47;24.42;;;11.20;99.90;;;10.26;100.00;97474.91;5028637;28;20411;-72
2022/10/20 04:11:32;;;;;;;50.83;25.17;;;11.20;99.90;;;10.28;100.00;97477.31;5027383;28;20529;-72
2022/10/20 04:14:00;;;;;;;48.75;24.10;;;11.20;99.90;;;10.28;100.00;97480.75;5025146;28;20422;-72
2022/10/20 04:16:25;;;;;;;44.85;24.02;;;11.20;99.90;;;10.30;100.00;97475.22;5019533;28;21123;-70
2022/10/20 04:18:52;;;;;;;43.63;22.38;;;11.20;99.90;;;10.31;100.00;97469.66;5025316;28;20403;-70
2022/10/20 04:21:18;;;;;;;52.97;24.58;;;11.20;99.90;;;10.32;100.00;97462.53;5028130;28;20819;-71
2022/10/20 04:23:44;;;;;;;55.88;25.42;;;11.20;99.90;;;10.32;100.00;97468.63;5033546;28;20403;-73
2022/10/20 04:26:10;;;;;;;53.75;24.33;;;11.30;99.90;;;10.33;100.00;97472.88;5020887;28;20450;-71
2022/10/20 04:28:36;;;;;;;53.42;24.85;;;11.30;99.90;;;10.32;100.00;97471.25;5029487;28;20478;-71
2022/10/20 04:31:04;;;;;;;47.40;24.23;;;11.20;99.90;;;10.30;100.00;97469.94;5034264;28;20414;-71
2022/10/20 04:33:30;;;;;;;45.50;24.48;;;11.20;99.90;;;10.29;100.00;97465.69;5033785;28;20418;-71
2022/10/20 04:35:58;;;;;;;41.53;22.90;;;11.20;99.90;;;10.30;100.00;97462.00;5034015;28;20445;-71
2022/10/20 04:38:24;;;;;;;56.58;24.58;;;11.20;99.90;;;10.31;100.00;97466.22;5033989;28;20410;-71
2022/10/20 04:40:53;;;;;;;52.67;23.80;;;11.20;99.90;;;10.30;100.00;97469.94;5033993;28;20422;-71
2022/10/20 04:43:19;;;;;;;44.90;22.65;;;11.20;99.90;;;10.32;100.00;97468.63;5024579;28;20415;-71
2022/10/20 04:45:45;;;;;;;46.70;24.05;;;11.20;99.90;;;10.32;100.00;97459.88;5023477;28;20418;-71
2022/10/20 04:48:12;;;;;;;39.83;21.77;;;11.30;99.90;;;10.34;100.00;97457.78;5023711;28;20501;-72
2022/10/20 04:50:38;;;;;;;44.13;22.40;;;11.30;99.90;;;10.35;100.00;97462.03;5031658;28;20430;-72
2022/10/20 04:53:04;;;;;;;45.67;24.08;;;11.30;99.90;;;10.36;100.00;97456.50;5028394;28;20419;-72
2022/10/20 04:55:30;;;;;;;48.47;24.88;;;11.30;99.90;;;10.37;100.00;97454.66;5029810;28;20565;-72
2022/10/20 04:57:56;;;;;;;45.17;22.90;;;11.30;99.90;;;10.38;100.00;97457.03;5033590;28;20402;-72
2022/10/20 05:00:22;;;;;;;50.63;24.17;;;11.30;99.90;;;10.39;100.00;97456.00;5033653;28;20403;-72
2022/10/20 05:02:48;;;;;;;49.83;24.77;;;11.30;99.90;;;10.41;100.00;97453.09;5033100;28;20398;-72
2022/10/20 05:05:15;;;;;;;51.63;22.83;;;11.30;99.90;;;10.39;100.00;97453.34;5033386;28;20910;-72
2022/10/20 05:07:41;;;;;;;47.22;23.70;;;11.30;99.90;;;10.41;100.00;97445.16;5033294;28;20418;-72
2022/10/20 05:10:13;;;;;;;55.35;25.35;;;11.30;99.90;;;10.40;100.00;97440.91;5026024;28;21731;-73
2022/10/20 05:12:39;;;;;;;46.73;23.37;;;11.30;99.90;;;10.39;100.00;97434.81;5030923;28;20411;-73
2022/10/20 05:15:06;;;;;;;45.35;23.65;;;11.30;99.90;;;10.39;100.00;97437.47;5032357;28;20406;-73
2022/10/20 05:17:32;;;;;;;40.72;22.40;;;11.30;99.90;;;10.39;100.00;97434.81;5031080;28;20406;-74
2022/10/20 05:20:01;;;;;;;44.73;24.20;;;11.30;99.90;;;10.39;100.00;97437.47;5032538;28;20890;-73
2022/10/20 05:22:29;;;;;;;50.17;25.02;;;11.30;99.90;;;10.38;100.00;97427.13;5032791;28;20414;-74
2022/10/20 05:24:55;;;;;;;53.92;27.17;;;11.30;99.90;;;10.40;100.00;97427.69;5032173;28;20916;-73
2022/10/20 05:27:21;;;;;;;46.22;24.65;;;11.30;99.90;;;10.40;100.00;97420.56;5032391;28;20512;-73
2022/10/20 05:29:47;;;;;;;50.78;27.40;;;11.30;99.90;;;10.39;100.00;97412.84;5032563;28;20403;-74
2022/10/20 05:32:13;;;;;;;43.58;23.27;;;11.30;99.90;;;10.39;100.00;97416.31;5032748;28;20410;-73
2022/10/20 05:34:39;;;;;;;52.17;25.58;;;11.30;99.90;;;10.37;100.00;97407.03;5039907;22;20854;-74
2022/10/20 05:37:05;;;;;;;42.03;24.07;;;11.30;99.90;;;10.35;100.00;97409.13;5015743;28;20414;-76
2022/10/20 05:39:32;;;;;;;50.33;24.75;;;11.30;99.90;;;10.32;100.00;97421.00;5013252;28;20434;-76
2022/10/20 05:41:58;;;;;;;60.75;26.77;;;11.20;99.90;;;10.30;100.00;97417.78;5030135;28;20418;-76
2022/10/20 05:44:24;;;;;;;53.30;25.30;;;11.30;99.90;;;10.30;100.00;97422.31;5034318;28;20446;-76
2022/10/20 05:46:49;;;;;;;53.40;25.03;;;11.20;99.90;;;10.27;100.00;97422.78;5031752;28;20411;-77
2022/10/20 05:49:16;;;;;;;53.40;24.33;;;11.20;99.90;;;10.27;100.00;97401.63;5029858;28;20469;-77
2022/10/20 05:51:44;;;;;;;48.50;24.10;;;11.20;99.90;;;10.24;100.00;97405.56;5024662;28;20498;-74
2022/10/20 05:54:12;;;;;;;53.03;24.57;;;11.20;99.90;;;10.25;100.00;97403.72;5022288;28;20411;-75
2022/10/20 05:56:50;;;;;;;52.35;24.13;;;11.20;99.90;;;10.22;100.00;97402.38;5028213;28;20518;-78
2022/10/20 05:59:20;;;;;;;45.63;22.15;;;11.20;99.90;;;10.20;100.00;97399.16;5023111;28;20401;-75
2022/10/20 06:01:48;;;;;;;47.00;24.38;;;11.10;99.90;;;10.17;100.00;97397.00;5021273;28;20499;-75
2022/10/20 06:04:16;;;;;;;53.58;25.15;;;11.20;99.90;;;10.21;100.00;97403.41;5019959;28;20773;-76
2022/10/20 06:06:43;;;;;;;46.03;23.15;;;11.20;99.90;;;10.24;100.00;97397.63;5020488;28;20444;-76
2022/10/20 06:09:10;;;;;;;50.28;26.27;;;11.20;99.90;;;10.25;100.00;97398.41;5025730;28;20413;-76
2022/10/20 06:11:37;;;;;;;53.92;23.95;;;11.20;99.90;;;10.25;100.00;97399.22;5026110;28;20395;-76
2022/10/20 06:14:04;;;;;;;45.55;23.58;;;11.20;99.90;;;10.28;100.00;97403.22;5020739;28;20469;-76
2022/10/20 06:16:31;;;;;;;46.35;22.75;;;11.20;99.90;;;10.30;100.00;97409.06;5027765;28;20403;-76
2022/10/20 06:18:58;;;;;;;58.35;25.65;;;11.20;99.90;;;10.29;100.00;97412.75;5033165;28;20738;-75
2022/10/20 06:21:27;;;;;;;47.45;24.05;;;11.20;99.90;;;10.27;100.00;97414.84;5024499;28;20751;-76
2022/10/20 06:23:53;;;;;;;52.15;24.85;;;11.20;99.90;;;10.28;100.00;97411.97;5018681;28;20399;-75
2022/10/20 06:26:22;;;;;;;46.92;23.88;;;11.20;99.90;;;10.32;100.00;97417.53;5019183;28;20504;-76
2022/10/20 06:28:51;;;;;;;48.50;24.88;;;11.20;99.90;;;10.35;100.00;97409.91;5025041;28;20434;-76
2022/10/20 06:31:21;;;;;;;47.60;22.67;;;11.30;99.90;;;10.39;100.00;97411.00;5029272;28;20407;-76
2022/10/20 06:33:48;;;;;;;46.42;23.83;;;11.30;99.90;;;10.41;100.00;97416.06;5027590;28;20404;-76
2022/10/20 06:36:15;;;;;;;46.38;24.58;;;11.30;99.90;;;10.39;100.00;97418.94;5030710;28;20872;-75
2022/10/20 06:38:42;;;;;;;54.15;26.23;;;11.30;99.90;;;10.42;100.00;97422.94;5023596;28;20430;-75
2022/10/20 06:41:11;;;;;;;46.42;23.77;;;11.40;99.90;;;10.43;100.00;97425.34;5028064;28;20407;-76
2022/10/20 06:43:37;;;;;;;53.40;25.42;;;11.30;99.90;;;10.46;100.00;97421.38;5029141;28;20845;-76
2022/10/20 06:46:07;;;;;;;46.00;22.42;;;11.40;99.90;;;10.46;100.00;97432.78;5028934;28;20501;-75
2022/10/20 06:48:35;;;;;;;52.63;23.52;;;11.40;99.90;;;10.48;100.00;97436.00;5044053;28;20415;-75
2022/10/20 06:51:04;;;;;;;51.95;24.65;;;11.40;99.90;;;10.48;100.00;97428.03;5029161;28;20411;-74
2022/10/20 06:53:30;;;;;;;41.30;21.70;;;11.40;99.90;;;10.54;100.00;97428.88;5030441;28;20964;-77
2022/10/20 06:55:57;;;;;;;48.65;22.48;;;11.50;99.90;;;10.58;100.00;97424.72;5030824;28;20413;-75
2022/10/20 06:58:23;;;;;;;45.72;22.92;;;11.50;99.90;;;10.60;100.00;97422.59;5031070;28;20403;-76
2022/10/20 07:00:58;;;;;;;47.07;22.03;;;11.50;99.90;;;10.65;100.00;97435.91;5030906;28;20438;-76
2022/10/20 07:03:24;;;;;;;45.60;22.35;;;11.60;99.90;;;10.69;100.00;97433.53;5030164;28;20400;-76
2022/10/20 07:05:51;;;;;;;48.35;22.88;;;11.60;99.90;;;10.75;100.00;97435.22;5030542;28;20504;-76
2022/10/20 07:08:17;;;;;;;43.60;22.10;;;11.70;99.90;;;10.77;100.00;97433.88;5031230;28;20412;-76
2022/10/20 07:10:43;;;;;;;43.88;21.55;;;11.70;99.90;;;10.82;100.00;97430.50;5030612;28;20437;-75
2022/10/20 07:13:09;;;;;;;41.15;21.35;;;11.80;99.90;;;10.88;100.00;97432.13;5029297;28;20422;-75
2022/10/20 07:15:35;;;;;;;41.92;21.52;;;11.70;99.90;;;10.93;100.00;97424.22;5030987;28;20403;-75
2022/10/20 07:18:01;;;;;;;41.63;20.98;;;11.80;99.90;;;11.01;100.00;97418.47;5031066;28;20407;-75
2022/10/20 07:20:26;;;;;;;36.27;19.47;;;11.90;99.90;;;11.05;100.00;97424.84;5031078;28;20468;-75
2022/10/20 07:22:54;;;;;;;42.27;21.97;;;11.90;99.90;;;11.09;100.00;97428.59;5027623;28;20448;-75
2022/10/20 07:25:21;;;;;;;38.05;20.65;;;12.00;99.90;;;11.16;100.00;97420.44;5023073;28;20415;-75
2022/10/20 07:27:47;;;;;;;40.47;20.48;;;12.00;99.90;;;11.27;100.00;97426.63;5025593;28;20415;-74
2022/10/20 07:30:13;;;;;;;39.40;20.63;;;12.10;99.90;;;11.31;100.00;97415.25;5030620;28;20410;-74
2022/10/20 07:32:39;;;;;;;44.63;21.95;;;12.20;99.90;;;11.41;100.00;97417.19;5030551;28;20407;-75
2022/10/20 07:35:06;;;;;;;35.60;18.60;;;12.30;99.90;;;11.40;100.00;97418.22;5030239;28;20900;-74
2022/10/20 07:37:32;;;;;;;30.63;17.38;;;12.30;99.90;;;11.48;100.00;97415.91;5029275;28;20924;-75
2022/10/20 07:39:59;;;;;;;34.25;18.90;;;12.30;99.90;;;11.52;100.00;97424.94;5024104;28;20585;-75
2022/10/20 07:42:27;;;;;;;33.05;19.90;;;12.30;99.90;;;11.49;100.00;97422.00;5030130;28;20441;-75
2022/10/20 07:44:53;;;;;;;33.20;18.05;;;12.40;99.90;;;11.55;100.00;97428.94;5029963;28;20809;-75
2022/10/20 07:47:19;;;;;;;34.00;18.92;;;12.40;99.90;;;11.61;100.00;97428.72;5030309;28;20438;-75
2022/10/20 07:49:45;;;;;;;27.23;16.83;;;12.50;99.90;;;11.45;100.00;97423.56;5030512;28;20403;-75
2022/10/20 07:52:11;;;;;;;30.30;18.52;;;12.30;99.90;;;11.53;100.00;97415.13;5030432;28;20442;-75
2022/10/20 07:54:37;;;;;;;28.60;16.70;;;12.40;99.90;;;11.63;100.00;97412.56;5028612;28;20404;-75
2022/10/20 07:57:04;;;;;;;29.65;16.23;;;12.50;99.90;;;11.73;100.00;97409.16;5030190;28;20483;-75
2022/10/20 07:59:30;;;;;;;30.98;16.42;;;12.60;99.90;;;11.69;100.00;97414.16;5030359;28;20407;-75
2022/10/20 08:01:56;;;;;;;28.23;16.27;;;12.50;99.90;;;11.61;100.00;97410.16;5030092;28;20415;-73
2022/10/20 08:04:22;;;;;;;25.17;15.43;;;12.50;99.90;;;11.66;100.00;97419.97;5029926;28;20430;-74
2022/10/20 08:06:48;;;;;;;23.87;14.73;;;12.50;99.90;;;11.75;100.00;97415.03;5030247;28;20776;-74
2022/10/20 08:09:14;;;;;;;21.97;12.97;;;12.60;99.90;;;11.88;100.00;97427.81;5025992;28;20414;-73
2022/10/20 08:11:40;;;;;;;25.70;14.90;;;12.70;99.90;;;11.89;100.00;97424.09;5025760;28;20454;-73
2022/10/20 08:14:07;;;;;;;31.65;16.63;;;12.70;99.90;;;11.85;100.00;97423.84;5024835;28;20855;-73
2022/10/20 08:16:33;;;;;;;22.15;13.57;;;12.70;99.90;;;12.01;100.00;97416.75;5027845;28;20415;-73
2022/10/20 08:18:59;;;;;;;23.75;15.05;;;12.80;99.90;;;12.05;100.00;97403.75;5030030;28;20403;-73
2022/10/20 08:21:25;;;;;;;22.98;13.90;;;12.90;99.90;;;12.16;100.00;97408.03;5027428;28;20423;-74
2022/10/20 08:23:51;;;;;;;23.83;14.40;;;13.00;99.90;;;12.19;100.00;97396.91;5027256;28;20415;-74
2022/10/20 08:26:19;;;;;;;22.40;13.43;;;13.00;99.90;;;12.25;100.00;97396.69;5029646;28;20545;-73
2022/10/20 08:28:46;;;;;;;18.88;12.32;;;13.10;99.90;;;12.31;100.00;97395.63;5010461;28;20405;-74
2022/10/20 08:31:13;;;;;;;18.92;12.10;;;13.10;99.90;;;12.37;100.00;97396.44;5010413;28;20409;-75
2022/10/20 08:33:39;;;;;;;18.43;11.60;;;13.20;99.90;;;12.43;100.00;97382.09;5009780;28;20444;-75
2022/10/20 08:36:08;;;;;;;18.33;11.68;;;13.20;99.90;;;12.54;100.00;97385.59;5010334;28;20411;-74
2022/10/20 08:38:34;;;;;;;17.20;11.27;;;13.40;99.90;;;12.60;100.00;97387.97;5010402;28;20459;-73
2022/10/20 08:41:02;;;;;;;18.05;11.35;;;13.40;99.90;;;12.73;100.00;97406.06;5023610;28;20414;-73
2022/10/20 08:43:30;;;;;;;17.20;11.38;;;13.50;99.90;;;12.75;100.00;97411.91;5027991;28;20468;-74
2022/10/20 08:45:57;;;;;;;16.48;11.20;;;13.60;99.90;;;12.78;100.00;97406.03;5045042;28;20411;-75
2022/10/20 08:48:28;;;;;;;17.40;11.27;;;13.60;99.90;;;12.85;100.00;97410.31;5029465;28;20562;-75
2022/10/20 08:50:54;;;;;;;17.35;11.45;;;13.60;99.90;;;12.91;100.00;97410.06;5029937;28;20952;-75
2022/10/20 08:53:23;;;;;;;16.17;11.75;;;13.70;99.90;;;13.00;100.00;97408.47;5029676;28;20484;-75
2022/10/20 08:55:50;;;;;;;19.08;12.98;;;13.80;99.90;;;13.15;100.00;97418.34;5029751;28;20407;-75
2022/10/20 08:58:20;;;;;;;19.77;12.75;;;13.90;99.90;;;13.10;100.00;97428.91;5030025;28;20432;-75
2022/10/20 09:00:58;;;;;;;15.70;10.77;;;13.90;99.90;;;13.15;100.00;97426.31;5029822;28;20400;-76
2022/10/20 09:03:30;;;;;;;14.00;9.63;;;13.90;99.90;;;13.18;100.00;97407.97;5029190;28;20936;-76
2022/10/20 09:06:01;;;;;;;15.15;9.73;;;14.00;99.90;;;13.31;100.00;97400.50;5029655;28;20391;-76
2022/10/20 09:08:31;;;;;;;15.50;9.10;;;14.00;99.90;;;13.40;100.00;97399.69;5029801;28;20486;-76
2022/10/20 09:10:58;;;;;;;19.15;11.63;;;14.10;99.90;;;13.38;100.00;97404.47;5031965;28;20403;-76
2022/10/20 09:13:26;;;;;;;13.60;10.02;;;14.20;99.90;;;13.63;100.00;97408.16;5030931;28;20426;-76
2022/10/20 09:15:57;;;;;;;18.13;10.70;;;14.30;99.90;;;13.64;100.00;97409.75;5028178;28;20932;-76
2022/10/20 09:18:25;;;;;;;16.38;10.63;;;14.40;99.90;;;13.69;100.00;97404.41;5031949;28;20391;-77
2022/10/20 09:20:54;;;;;;;15.73;10.93;;;14.40;99.90;;;13.80;100.00;97408.66;5033266;28;20395;-76
2022/10/20 09:23:35;;;;;;;17.43;12.00;;;14.50;99.90;;;13.76;100.00;97412.91;5032834;28;20509;-76
2022/10/20 09:26:01;;;;;;;18.52;11.30;;;14.50;99.90;;;13.75;100.00;97414.00;5032851;28;20880;-76
2022/10/20 09:28:28;;;;;;;15.43;9.80;;;14.50;99.90;;;13.79;100.00;97413.19;5033031;28;20418;-75
2022/10/20 09:30:55;;;;;;;18.02;10.63;;;14.50;99.90;;;13.75;100.00;97414.00;5032936;28;20415;-76
2022/10/20 09:33:28;;;;;;;12.75;9.23;;;14.50;99.90;;;13.79;100.00;97423.81;5032585;28;20434;-77
2022/10/20 09:36:03;;;;;;;12.02;8.02;;;14.50;99.90;;;13.87;100.00;97423.25;5028830;28;20462;-77
2022/10/20 09:38:31;;;;;;;11.70;8.30;;;14.60;99.90;;;13.97;100.00;97414.47;5031333;28;20410;-76
2022/10/20 09:41:12;;;;;;;17.42;10.35;;;14.70;99.90;;;13.97;100.00;97433.09;5032442;28;20889;-76
2022/10/20 09:43:46;;;;;;;16.38;10.02;;;14.70;99.90;;;14.21;100.00;97430.56;5032157;28;20410;-76
2022/10/20 09:46:16;;;;;;;15.32;9.05;;;14.80;99.90;;;14.19;100.00;97435.41;5026866;28;20807;-76
2022/10/20 09:48:46;;;;;;;12.77;8.00;;;14.90;99.90;;;14.18;100.00;97437.28;5031644;28;20461;-77
2022/10/20 09:51:17;;;;;;;18.67;9.80;;;14.90;99.90;;;14.02;100.00;97441.06;5032620;28;20403;-76
2022/10/20 09:53:56;;;;;;;14.85;8.65;;;14.80;99.90;;;14.04;100.00;97446.09;5030814;28;20407;-77
2022/10/20 09:56:25;;;;;;;10.75;7.57;;;14.80;99.90;;;14.00;100.00;97439.72;5031250;28;20407;-77
2022/10/20 09:58:52;;;;;;;19.13;10.63;;;14.70;99.90;;;13.90;100.00;97444.03;5032662;28;20465;-77
2022/10/20 10:01:18;;;;;;;13.40;9.30;;;14.70;99.90;;;13.93;100.00;97429.38;5032624;28;20411;-76
2022/10/20 10:03:48;;;;;;;14.32;8.88;;;14.70;99.90;;;13.92;100.00;97435.75;5031921;28;20395;-76
2022/10/20 10:06:38;;;;;;;12.57;8.48;;;14.70;99.90;;;13.97;100.00;97430.44;5032367;28;20476;-76